Main page
METAR-TAF:

METAR-TAF

Airports :

Wake Island Airfield

Wake Island, United States

latitude: 19-17N, longitude: 166-39E, elevation: 4 m

Current weather observation

The report was made 20 minutes ago, at 17:55 UTC
Wind 12 kt from the East/Northeast
Temperature 27°C
Humidity 84%
Pressure 1014 hPa
Visibility: 16.1 km
Scattered clouds at a height of 1600 ft
Scattered clouds at a height of 2700 ft
Scattered clouds at a height of 3400 ft
Broken clouds at a height of 4700 ft

METAR: PWAK 211755Z AUTO 06012KT 10SM SCT016 SCT027 SCT034 BKN047 27/24 A2995 RMK AO2 SLP148 60000 T02710239 10274 20259 55000

Time: 06:15 (18:15 UTC)

Forecast

The report was made 4 hours and 15 minutes ago, at 14:00 UTC
Forecast valid from 21 at 14 UTC to 22 at 20 UTC
Wind 13 kt from the East/Northeast
Visibility 10 km or more
Scattered clouds at a height of 2000 ft
Broken clouds at a height of 3500 ft

TAF: PWAK 211400Z 2114/2220 06013KT 9999 SCT020 BKN035 QNH2987INS TX31/2203Z TN27/2114Z

Weather observations and forecasts of more than 4000 airports (METAR and TAF reports).

The available stations are represented by yellow and red dots on the map.

Hover mouse over dot to see the name of the station.

Then click to see weather observations and forecasts.

To change the map : click on the green buttons with a black cross to zoom in, on the green button with a dash to zoom out, or on the green arrows for adjacent maps.


METAR-TAF: